Decoded Metar for PAYA (YAKUTAT in AK, USA) (IATA:YAK) | Meteo·Mobile Aviation Weather
aviador You're here:

PAYA Decoded Metar

YAKUTAT in AK, USA
Report Time2019-07-16 10:01:00
UTC Time2019-07-16 10:46:12
Flight Rules mvfr MVFR
Wind070° at 05 kt
W.Decomp.*RWY 02: 4.3 kt HW 2.5 kt RCW
RWY 11: 2.5 kt HW 4.3 kt LCW
Visibility9999 m
Phenomena:N/A
Clouds:Overcast 011 Hf
Ceiling1,100 ft
Temp13°C (ISA -2)
Dew Point13°C (100% RH)
AAT12.1°C
QNH1012 hPa
Density Alt39 ft
Elevation36 ft
Report Wrong Elevation
Raw Report
PAYA 161001Z AUTO 07005KT 10SM OVC011 13/13 A2987=

Extra information for PAYA:More info

Metar Taf Metar & Taf Last 4 Metars F.Rules Stats Wind Profile Meteogram Temp Stats Airport Information Weather charts Add Link Nearby VenuesMetar ALERT Operation Metar Decoded Social comments

AIRNAV info for PAYA